Time;durP1;ratioP1;P1;durP2;ratioP2;P2;SDS_P1;SDS_P2;PMS_P1;PMS_P2;Temp;Humidity;BMP_temperature;BMP_pressure;BME280_temperature;BME280_humidity;BME280_pressure;Samples;Min_cycle;Max_cycle;Signal;HPM_P1;HPM_P2
2022/01/09 00:00:21;;;;;;;13.52;6.57;;;-0.70;77.20;;;;;;5000024;28;20026;-83
2022/01/09 00:02:47;;;;;;;10.77;5.68;;;-0.70;77.00;;;;;;5003039;28;20110;-80
2022/01/09 00:05:13;;;;;;;11.38;5.68;;;-0.60;76.90;;;;;;5004584;28;20056;-82
2022/01/09 00:07:39;;;;;;;10.98;5.53;;;-0.60;77.00;;;;;;5020262;28;20151;-80
2022/01/09 00:10:07;;;;;;;12.55;5.03;;;-0.60;76.60;;;;;;5021266;28;20106;-81
2022/01/09 00:12:33;;;;;;;11.05;5.20;;;-0.60;76.70;;;;;;5004428;28;20033;-81
2022/01/09 00:14:59;;;;;;;10.45;5.20;;;-0.50;76.50;;;;;;4996571;28;20030;-81
2022/01/09 00:17:24;;;;;;;10.50;5.18;;;-0.50;76.90;;;;;;4993783;28;20041;-80
2022/01/09 00:19:50;;;;;;;12.10;6.00;;;-0.50;76.50;;;;;;5011750;28;20030;-81
2022/01/09 00:22:20;;;;;;;13.35;5.90;;;-0.50;75.90;;;;;;4994201;28;20022;-81
2022/01/09 00:24:46;;;;;;;13.90;5.72;;;-0.50;76.20;;;;;;4994081;28;20092;-80
2022/01/09 00:27:11;;;;;;;11.85;6.32;;;-0.50;76.00;;;;;;4993780;28;20496;-80
2022/01/09 00:29:37;;;;;;;12.45;5.53;;;-0.50;76.00;;;;;;4993654;28;20105;-80
2022/01/09 00:32:03;;;;;;;12.45;5.70;;;-0.50;75.80;;;;;;5011761;28;20424;-80
2022/01/09 00:34:28;;;;;;;9.15;4.97;;;-0.50;75.40;;;;;;5028539;28;20046;-80
2022/01/09 00:36:54;;;;;;;10.15;4.57;;;-0.40;75.70;;;;;;5031368;28;20056;-80
2022/01/09 00:39:20;;;;;;;8.60;4.68;;;-0.40;75.00;;;;;;5030866;28;20095;-81
2022/01/09 00:41:45;;;;;;;11.48;4.78;;;-0.40;74.80;;;;;;5013247;28;20464;-83
2022/01/09 00:44:11;;;;;;;11.90;4.75;;;-0.40;74.60;;;;;;5031309;28;20029;-80
2022/01/09 00:46:37;;;;;;;11.65;5.07;;;-0.50;74.60;;;;;;5013766;28;20029;-80
2022/01/09 00:49:04;;;;;;;11.73;4.90;;;-0.40;74.30;;;;;;5031450;28;20037;-80
2022/01/09 00:51:30;;;;;;;14.15;5.93;;;-0.50;74.20;;;;;;5013270;28;20468;-80
2022/01/09 00:53:56;;;;;;;15.07;6.80;;;-0.60;74.30;;;;;;5014718;28;20032;-82
2022/01/09 00:56:22;;;;;;;20.10;7.80;;;-0.60;76.00;;;;;;5032416;28;20029;-81
2022/01/09 00:58:47;;;;;;;16.98;8.15;;;-0.70;76.80;;;;;;5030861;28;20041;-80
2022/01/09 01:01:13;;;;;;;15.85;8.73;;;-0.80;77.60;;;;;;5013233;28;20033;-80
2022/01/09 01:03:39;;;;;;;14.18;6.97;;;-0.90;78.40;;;;;;5013118;28;20472;-81
2022/01/09 01:06:04;;;;;;;13.50;6.43;;;-0.90;79.10;;;;;;5030550;28;20453;-80
2022/01/09 01:08:30;;;;;;;13.02;6.05;;;-1.00;80.40;;;;;;5012783;28;20033;-80
2022/01/09 01:10:56;;;;;;;14.52;6.40;;;-1.00;81.70;;;;;;5013186;28;20123;-81
2022/01/09 01:13:21;;;;;;;11.55;5.10;;;-1.10;85.30;;;;;;5012836;28;20368;-79
2022/01/09 01:15:47;;;;;;;11.00;4.88;;;-1.20;83.40;;;;;;5012968;28;20030;-79
2022/01/09 01:18:13;;;;;;;8.23;4.63;;;-1.20;84.20;;;;;;5012995;28;20438;-79
2022/01/09 01:20:40;;;;;;;10.10;5.00;;;-1.20;85.80;;;;;;5012741;28;20037;-82
2022/01/09 01:23:06;;;;;;;7.95;4.38;;;-1.30;86.40;;;;;;5012623;28;20030;-82
2022/01/09 01:25:32;;;;;;;9.85;4.60;;;-1.30;85.80;;;;;;5030383;28;20813;-82
2022/01/09 01:27:58;;;;;;;9.18;4.65;;;-1.30;88.70;;;;;;5012850;28;20029;-81
2022/01/09 01:30:23;;;;;;;9.35;4.70;;;-1.30;89.80;;;;;;5030473;28;20036;-81
2022/01/09 01:32:49;;;;;;;10.15;5.32;;;-1.30;90.30;;;;;;5010634;28;20100;-80
2022/01/09 01:35:15;;;;;;;12.43;5.22;;;-1.30;90.50;;;;;;4996662;28;20144;-80
2022/01/09 01:37:42;;;;;;;20.30;7.03;;;-1.30;90.40;;;;;;5016752;28;20034;-80
2022/01/09 01:40:17;;;;;;;14.57;6.75;;;-1.30;90.90;;;;;;5016826;28;20030;-78
2022/01/09 01:42:43;;;;;;;17.58;6.47;;;-1.30;91.90;;;;;;4999314;28;20112;-79
2022/01/09 01:45:10;;;;;;;15.63;6.75;;;-1.30;91.10;;;;;;4998966;28;20052;-79
2022/01/09 01:47:35;;;;;;;14.80;6.80;;;-1.30;91.30;;;;;;4998835;28;20029;-79
2022/01/09 01:50:02;;;;;;;14.75;6.70;;;-1.30;91.70;;;;;;5016568;28;20037;-80
2022/01/09 01:52:34;;;;;;;16.38;6.75;;;-1.30;91.90;;;;;;4999247;28;20053;-80
2022/01/09 01:55:00;;;;;;;15.82;6.93;;;-1.30;92.60;;;;;;5016406;28;20037;-80
2022/01/09 01:57:28;;;;;;;16.38;6.93;;;-1.30;92.40;;;;;;4998734;28;20030;-79
2022/01/09 01:59:55;;;;;;;14.18;5.85;;;-1.40;92.40;;;;;;4998724;28;20037;-79
2022/01/09 02:02:22;;;;;;;14.35;5.90;;;-1.40;92.50;;;;;;4998715;28;20385;-79
2022/01/09 02:04:48;;;;;;;11.65;5.57;;;-1.30;92.90;;;;;;4999034;28;20030;-78
2022/01/09 02:07:14;;;;;;;12.82;6.35;;;-1.30;93.00;;;;;;4998413;28;20034;-80
2022/01/09 02:09:39;;;;;;;13.77;6.20;;;-1.30;93.20;;;;;;5015971;28;20034;-80
2022/01/09 02:12:06;;;;;;;10.20;5.65;;;-1.40;93.30;;;;;;5015911;28;20034;-79
2022/01/09 02:14:35;;;;;;;13.02;5.65;;;-1.30;93.30;;;;;;5016407;28;20030;-80
2022/01/09 02:17:01;;;;;;;12.55;5.72;;;-1.30;93.80;;;;;;4998212;28;20034;-80
2022/01/09 02:19:27;;;;;;;11.10;5.60;;;-1.30;94.00;;;;;;5016175;28;20033;-79
2022/01/09 02:21:54;;;;;;;11.25;5.32;;;-1.30;93.80;;;;;;5015961;28;20030;-80
2022/01/09 02:24:23;;;;;;;9.00;4.97;;;-1.30;94.00;;;;;;4998350;28;20113;-79
2022/01/09 02:26:50;;;;;;;10.60;4.82;;;-1.30;93.50;;;;;;5016075;28;20117;-79
2022/01/09 02:29:16;;;;;;;8.95;4.80;;;-1.30;93.70;;;;;;4998156;28;20033;-78
2022/01/09 02:31:42;;;;;;;10.13;4.95;;;-1.30;94.10;;;;;;4998117;28;20030;-78
2022/01/09 02:34:08;;;;;;;8.80;4.47;;;-1.30;94.40;;;;;;5029384;28;20064;-78
2022/01/09 02:36:35;;;;;;;9.05;4.93;;;-1.30;94.30;;;;;;5035288;28;20459;-80
2022/01/09 02:39:01;;;;;;;8.38;4.97;;;-1.30;94.50;;;;;;5035605;28;20037;-79
2022/01/09 02:41:27;;;;;;;11.20;5.47;;;-1.30;94.40;;;;;;5035231;28;20025;-78
2022/01/09 02:43:52;;;;;;;11.98;5.30;;;-1.30;94.40;;;;;;5017684;28;20033;-79
2022/01/09 02:49:07;;;;;;;10.20;5.20;;;-1.30;94.40;;;;;;5035760;28;20037;-78
2022/01/09 02:51:39;;;;;;;11.32;5.18;;;-1.30;94.90;;;;;;5017401;28;20025;-78
2022/01/09 02:56:53;;;;;;;10.63;5.30;;;-1.30;94.50;;;;;;5015501;28;20040;-78
2022/01/09 02:59:19;;;;;;;11.73;5.80;;;-1.30;94.70;;;;;;5035052;28;20033;-79
2022/01/09 03:01:44;;;;;;;13.55;6.40;;;-1.30;95.00;;;;;;5017323;28;20048;-78
2022/01/09 03:04:10;;;;;;;11.35;5.85;;;-1.30;95.20;;;;;;5017253;28;20052;-78
2022/01/09 03:06:36;;;;;;;10.18;5.20;;;-1.40;95.40;;;;;;5035057;28;20057;-79
2022/01/09 03:09:05;;;;;;;10.18;5.13;;;-1.30;95.50;;;;;;5017171;28;20032;-79
2022/01/09 03:11:31;;;;;;;11.95;5.57;;;-1.30;95.70;;;;;;5034778;28;20412;-78
2022/01/09 03:13:57;;;;;;;10.82;5.20;;;-1.30;95.90;;;;;;5035016;28;20464;-81
2022/01/09 03:16:23;;;;;;;11.23;5.13;;;-1.30;95.70;;;;;;5034799;28;20032;-79
2022/01/09 03:18:48;;;;;;;8.65;4.78;;;-1.40;95.70;;;;;;5034641;28;20129;-78
2022/01/09 03:21:14;;;;;;;10.70;5.80;;;-1.30;95.70;;;;;;5034848;28;20045;-79
2022/01/09 03:23:40;;;;;;;14.00;6.82;;;-1.30;95.60;;;;;;5016969;28;20383;-79
2022/01/09 03:26:08;;;;;;;15.95;6.95;;;-1.30;95.90;;;;;;5034467;28;20025;-78
2022/01/09 03:28:35;;;;;;;14.95;7.18;;;-1.30;96.30;;;;;;5016785;28;20026;-79
2022/01/09 03:31:01;;;;;;;12.18;6.95;;;-1.30;96.40;;;;;;5034501;28;20017;-80
2022/01/09 03:33:27;;;;;;;11.82;6.53;;;-1.30;96.50;;;;;;5034365;28;20052;-79
2022/01/09 03:35:52;;;;;;;11.38;5.55;;;-1.30;96.80;;;;;;5034718;28;20036;-80
2022/01/09 03:38:18;;;;;;;10.95;5.55;;;-1.40;96.30;;;;;;5016365;28;20088;-78
2022/01/09 03:40:44;;;;;;;10.90;5.40;;;-1.30;96.20;;;;;;5016441;28;20060;-78
2022/01/09 03:43:09;;;;;;;12.77;5.63;;;-1.30;96.40;;;;;;5033994;28;20029;-79
2022/01/09 03:45:35;;;;;;;10.05;5.15;;;-1.30;96.80;;;;;;5033946;28;20025;-79
2022/01/09 03:48:01;;;;;;;11.05;5.07;;;-1.30;96.80;;;;;;5016964;28;20032;-80
2022/01/09 03:50:27;;;;;;;9.35;5.55;;;-1.30;96.90;;;;;;5033729;28;20108;-80
2022/01/09 03:52:53;;;;;;;13.30;6.25;;;-1.30;96.50;;;;;;5016517;28;20075;-78
2022/01/09 03:55:20;;;;;;;12.65;6.20;;;-1.30;96.80;;;;;;5016623;28;20029;-79
2022/01/09 03:57:47;;;;;;;12.60;6.53;;;-1.30;96.90;;;;;;5033645;28;20022;-79
2022/01/09 04:00:18;;;;;;;14.55;7.28;;;-1.30;96.90;;;;;;5016399;28;20507;-79
2022/01/09 04:02:45;;;;;;;15.02;6.35;;;-1.30;97.20;;;;;;5016287;28;20052;-79
2022/01/09 04:05:11;;;;;;;18.77;7.45;;;-1.40;97.30;;;;;;5016390;28;20483;-79
2022/01/09 04:07:38;;;;;;;15.57;7.50;;;-1.30;97.50;;;;;;5033757;28;20495;-80
2022/01/09 04:10:04;;;;;;;18.58;8.55;;;-1.30;97.50;;;;;;5034000;28;20034;-78
2022/01/09 04:12:34;;;;;;;12.45;5.95;;;-1.30;98.10;;;;;;5017779;28;20029;-77
2022/01/09 04:15:07;;;;;;;12.13;6.13;;;-1.30;97.50;;;;;;5035168;28;20120;-79
2022/01/09 04:20:02;;;;;;;13.98;7.10;;;-1.30;97.90;;;;;;5033634;28;20037;-79
2022/01/09 04:22:28;;;;;;;18.00;7.68;;;-1.30;97.90;;;;;;5016317;28;20061;-78
2022/01/09 04:24:54;;;;;;;18.02;7.50;;;-1.30;98.20;;;;;;5033820;28;20060;-79
2022/01/09 04:27:19;;;;;;;16.10;7.47;;;-1.30;98.20;;;;;;5015846;28;20435;-78
2022/01/09 04:29:45;;;;;;;21.48;9.35;;;-1.30;98.10;;;;;;5033622;28;20514;-78
2022/01/09 04:32:10;;;;;;;17.35;8.25;;;-1.30;98.00;;;;;;5015978;28;20025;-78
2022/01/09 04:34:36;;;;;;;17.50;7.80;;;-1.30;98.00;;;;;;5016145;28;20049;-80
2022/01/09 04:37:02;;;;;;;18.20;8.05;;;-1.30;97.90;;;;;;5033434;28;20037;-79
2022/01/09 04:39:28;;;;;;;18.52;8.98;;;-1.20;98.20;;;;;;5033462;28;20388;-79
2022/01/09 04:41:54;;;;;;;16.77;7.65;;;-1.20;97.90;;;;;;5033458;28;20075;-79
2022/01/09 04:44:20;;;;;;;19.58;8.85;;;-1.20;97.60;;;;;;5015722;28;20468;-79
2022/01/09 04:46:53;;;;;;;20.50;9.80;;;-1.20;98.00;;;;;;5033326;28;20030;-79
2022/01/09 04:49:23;;;;;;;19.42;8.57;;;-1.20;98.50;;;;;;5015600;28;20022;-78
2022/01/09 04:51:48;;;;;;;17.92;8.93;;;-1.20;98.50;;;;;;5033223;28;20025;-79
2022/01/09 04:54:14;;;;;;;20.35;8.48;;;-1.20;98.50;;;;;;5033299;28;20071;-79
2022/01/09 04:56:39;;;;;;;20.50;9.05;;;-1.20;98.60;;;;;;5015371;28;20032;-79
2022/01/09 04:59:05;;;;;;;17.85;8.35;;;-1.20;98.70;;;;;;5033519;28;20491;-79
2022/01/09 05:01:31;;;;;;;26.42;10.57;;;-1.20;98.60;;;;;;5015763;28;20447;-80
2022/01/09 05:03:56;;;;;;;20.50;9.88;;;-1.20;99.50;;;;;;5033746;28;20082;-79
2022/01/09 05:06:22;;;;;;;22.73;9.68;;;-1.20;99.60;;;;;;5015823;28;20029;-79
2022/01/09 05:08:48;;;;;;;19.10;8.35;;;-1.20;99.20;;;;;;5015852;28;20088;-78
2022/01/09 05:11:14;;;;;;;17.77;7.57;;;-1.20;99.10;;;;;;5018830;28;20033;-78
2022/01/09 05:13:39;;;;;;;17.52;8.27;;;-1.20;99.10;;;;;;5019414;28;20077;-77
2022/01/09 05:16:05;;;;;;;20.77;8.82;;;-1.20;99.20;;;;;;5019702;28;20033;-77
2022/01/09 05:18:39;;;;;;;19.25;9.82;;;-1.10;99.50;;;;;;5018826;28;20476;-78
2022/01/09 05:21:05;;;;;;;22.00;9.63;;;-1.10;99.30;;;;;;5019776;28;20034;-79
2022/01/09 05:23:30;;;;;;;21.50;9.30;;;-1.10;99.10;;;;;;5019569;28;20483;-80
2022/01/09 05:25:56;;;;;;;21.95;9.95;;;-1.10;98.80;;;;;;5018824;28;20067;-78
2022/01/09 05:28:22;;;;;;;19.58;8.77;;;-1.10;98.80;;;;;;5019136;28;20029;-78
2022/01/09 05:30:47;;;;;;;20.38;9.80;;;-1.10;98.70;;;;;;5018946;28;20025;-79
2022/01/09 05:33:13;;;;;;;21.42;9.25;;;-1.10;99.20;;;;;;5018934;28;20052;-79
2022/01/09 05:35:38;;;;;;;21.52;9.40;;;-1.10;99.30;;;;;;5036921;28;20033;-78
2022/01/09 05:38:04;;;;;;;22.23;9.48;;;-1.10;99.20;;;;;;5036940;28;20033;-78
2022/01/09 05:40:30;;;;;;;22.02;10.52;;;-1.10;99.20;;;;;;5018643;28;20376;-78
2022/01/09 05:42:55;;;;;;;22.90;10.10;;;-1.10;99.60;;;;;;5036647;28;20030;-78
2022/01/09 05:45:21;;;;;;;23.85;10.00;;;-1.10;99.40;;;;;;5018668;28;20456;-79
2022/01/09 05:47:47;;;;;;;22.30;9.40;;;-1.10;99.10;;;;;;5036366;28;20040;-78
2022/01/09 05:50:13;;;;;;;23.40;10.00;;;-1.10;99.10;;;;;;5018415;28;20034;-78
2022/01/09 05:52:38;;;;;;;18.40;9.02;;;-1.20;99.00;;;;;;5036619;28;20026;-80
2022/01/09 05:55:04;;;;;;;22.00;10.00;;;-1.20;98.90;;;;;;5037035;28;20037;-79
2022/01/09 05:57:30;;;;;;;21.42;9.73;;;-1.20;98.70;;;;;;5018459;28;20116;-79
2022/01/09 05:59:56;;;;;;;21.85;9.82;;;-1.10;99.00;;;;;;5036128;28;20057;-80
2022/01/09 06:02:21;;;;;;;27.55;10.77;;;-1.10;98.80;;;;;;5035586;28;20081;-79
2022/01/09 06:04:47;;;;;;;21.23;9.95;;;-1.10;99.10;;;;;;5035978;28;20148;-79
2022/01/09 06:07:13;;;;;;;23.45;10.15;;;-1.10;99.10;;;;;;5036017;28;20060;-79
2022/01/09 06:09:38;;;;;;;23.45;10.15;;;-1.10;99.00;;;;;;5018169;28;20033;-79
2022/01/09 06:12:04;;;;;;;20.50;8.90;;;-1.10;99.20;;;;;;5036318;28;20029;-79
2022/01/09 06:14:30;;;;;;;23.67;10.35;;;-1.10;99.00;;;;;;5018048;28;20048;-78
2022/01/09 06:16:56;;;;;;;25.73;11.32;;;-1.10;99.10;;;;;;5035562;28;20029;-78
2022/01/09 06:19:21;;;;;;;27.65;11.48;;;-1.10;99.40;;;;;;5018233;28;20030;-78
2022/01/09 06:21:47;;;;;;;24.55;10.38;;;-1.10;99.30;;;;;;5017721;28;20021;-79
2022/01/09 06:24:12;;;;;;;23.75;10.30;;;-1.10;99.00;;;;;;5035572;28;20048;-79
2022/01/09 06:26:38;;;;;;;23.83;10.73;;;-1.10;98.80;;;;;;5017708;28;20026;-79
2022/01/09 06:29:04;;;;;;;25.00;10.48;;;-1.10;99.10;;;;;;5018010;28;20076;-78
2022/01/09 06:31:29;;;;;;;26.55;11.48;;;-1.10;98.80;;;;;;5017560;28;20816;-79
2022/01/09 06:33:55;;;;;;;25.10;10.25;;;-1.10;99.00;;;;;;5017493;28;20081;-78
2022/01/09 06:36:21;;;;;;;27.50;11.95;;;-1.10;99.20;;;;;;5035678;28;20510;-79
2022/01/09 06:38:50;;;;;;;23.80;10.82;;;-1.10;99.80;;;;;;5001472;28;20511;-78
2022/01/09 06:41:15;;;;;;;28.55;11.00;;;-1.10;99.70;;;;;;5017932;28;20124;-79
2022/01/09 06:43:41;;;;;;;25.95;10.63;;;-1.10;99.60;;;;;;5035391;28;20520;-80
2022/01/09 06:46:06;;;;;;;26.77;10.15;;;-1.10;99.70;;;;;;5017847;28;20029;-78
2022/01/09 06:48:32;;;;;;;27.75;10.65;;;-1.10;99.90;;;;;;5017480;28;20380;-78
2022/01/09 06:50:58;;;;;;;25.63;10.85;;;-1.00;99.60;;;;;;5035220;28;20382;-78
2022/01/09 06:53:26;;;;;;;24.65;11.10;;;-1.00;99.90;;;;;;5017452;28;20467;-80
2022/01/09 06:55:52;;;;;;;29.20;10.88;;;-1.10;99.90;;;;;;5017176;28;20029;-79
2022/01/09 06:58:21;;;;;;;24.42;10.60;;;-1.00;99.90;;;;;;5034777;28;20029;-78
2022/01/09 07:00:47;;;;;;;31.05;12.23;;;-1.00;99.90;;;;;;5027279;28;20025;-79
2022/01/09 07:03:16;;;;;;;28.17;11.80;;;-1.00;99.90;;;;;;5018192;28;20516;-80
2022/01/09 07:05:41;;;;;;;25.08;11.23;;;-0.90;99.90;;;;;;5034990;28;20029;-79
2022/01/09 07:08:07;;;;;;;30.60;11.50;;;-1.00;99.90;;;;;;5034762;28;20038;-79
2022/01/09 07:10:33;;;;;;;30.75;12.90;;;-0.90;99.90;;;;;;5017044;28;20036;-78
2022/01/09 07:13:02;;;;;;;27.15;11.90;;;-0.90;99.90;;;;;;5016975;28;20380;-78
2022/01/09 07:15:27;;;;;;;38.33;14.55;;;-0.90;99.90;;;;;;5000539;28;20029;-82
2022/01/09 07:17:53;;;;;;;29.67;13.00;;;-0.90;99.90;;;;;;5016326;28;20384;-79
2022/01/09 07:20:18;;;;;;;34.42;14.57;;;-0.90;99.90;;;;;;5016823;28;20088;-79
2022/01/09 07:22:44;;;;;;;43.20;16.30;;;-0.90;99.90;;;;;;5016992;28;20029;-79
2022/01/09 07:25:10;;;;;;;34.20;13.63;;;-0.90;99.90;;;;;;5016719;28;20460;-79
2022/01/09 07:27:36;;;;;;;30.60;12.70;;;-0.90;99.90;;;;;;5034802;28;20108;-79
2022/01/09 07:30:05;;;;;;;31.80;12.57;;;-0.90;99.90;;;;;;5034924;28;20109;-78
2022/01/09 07:32:31;;;;;;;36.00;14.00;;;-0.90;99.90;;;;;;5015580;28;20030;-80
2022/01/09 07:34:57;;;;;;;34.17;13.57;;;-0.80;99.90;;;;;;5016431;28;20029;-79
2022/01/09 07:37:23;;;;;;;42.85;16.83;;;-0.80;99.90;;;;;;5034281;28;20120;-79
2022/01/09 07:39:50;;;;;;;39.92;16.83;;;-0.80;99.90;;;;;;5034599;28;20040;-78
2022/01/09 07:42:16;;;;;;;35.58;14.63;;;-0.80;99.90;;;;;;5034250;28;20156;-79
2022/01/09 07:44:41;;;;;;;41.53;15.50;;;-0.80;99.90;;;;;;5017904;28;20121;-79
2022/01/09 07:47:07;;;;;;;41.03;17.08;;;-0.80;99.90;;;;;;5041821;28;20037;-77
2022/01/09 07:49:33;;;;;;;35.20;15.57;;;-0.70;99.90;;;;;;5028411;28;20028;-79
2022/01/09 07:51:58;;;;;;;31.65;14.57;;;-0.70;99.90;;;;;;5039033;28;20041;-77
2022/01/09 07:54:24;;;;;;;35.05;14.80;;;-0.70;99.90;;;;;;5018063;28;20034;-78
2022/01/09 07:56:50;;;;;;;30.15;14.23;;;-0.70;99.90;;;;;;5034430;28;20051;-80
2022/01/09 07:59:16;;;;;;;36.92;16.55;;;-0.60;99.90;;;;;;5016900;28;20029;-80
2022/01/09 08:01:42;;;;;;;33.90;12.70;;;-0.70;99.90;;;;;;5016502;28;20025;-79
2022/01/09 08:04:07;;;;;;;31.45;13.40;;;-0.60;99.90;;;;;;5016308;28;20483;-78
2022/01/09 08:06:33;;;;;;;36.05;13.65;;;-0.70;99.90;;;;;;5016302;28;20068;-79
2022/01/09 08:09:02;;;;;;;34.92;13.25;;;-0.70;99.90;;;;;;5016281;28;20030;-79
2022/01/09 08:11:28;;;;;;;36.30;13.18;;;-0.60;99.90;;;;;;5033862;28;20076;-79
2022/01/09 08:13:54;;;;;;;35.08;13.88;;;-0.60;99.90;;;;;;5016452;28;20033;-78
2022/01/09 08:16:19;;;;;;;37.10;14.20;;;-0.60;99.90;;;;;;5034726;28;20036;-80
2022/01/09 08:18:45;;;;;;;29.52;12.15;;;-0.60;99.90;;;;;;5018129;28;20387;-80
2022/01/09 08:21:11;;;;;;;29.35;12.75;;;-0.60;99.90;;;;;;5016480;28;20139;-78
2022/01/09 08:23:36;;;;;;;29.75;12.88;;;-0.60;99.90;;;;;;5033572;28;20025;-80
2022/01/09 08:26:02;;;;;;;34.47;13.27;;;-0.60;99.90;;;;;;5033473;28;20052;-79
2022/01/09 08:28:28;;;;;;;32.03;12.77;;;-0.50;99.90;;;;;;5033701;28;20030;-79
2022/01/09 08:30:54;;;;;;;33.20;14.88;;;-0.50;99.90;;;;;;5032883;28;20037;-79
2022/01/09 08:33:24;;;;;;;27.08;12.77;;;-0.50;99.90;;;;;;5015436;28;20052;-78
2022/01/09 08:35:55;;;;;;;27.80;12.57;;;-0.50;99.90;;;;;;5033770;28;20075;-78
2022/01/09 08:38:20;;;;;;;;;;;-0.40;99.90;;;;;;5033864;28;20423;-79
2022/01/09 08:40:46;;;;;;;29.08;11.18;;;-0.40;99.90;;;;;;5015957;28;19916;-79
2022/01/09 08:43:12;;;;;;;26.05;11.52;;;-0.40;99.90;;;;;;5033151;28;20160;-79
2022/01/09 08:45:37;;;;;;;28.60;11.45;;;-0.30;99.90;;;;;;5036503;28;20452;-78
2022/01/09 08:48:05;;;;;;;25.48;11.20;;;-0.30;99.80;;;;;;5037880;28;20034;-79
2022/01/09 08:50:31;;;;;;;26.65;11.93;;;-0.30;99.40;;;;;;5019609;28;20027;-79
2022/01/09 08:52:57;;;;;;;32.13;13.43;;;-0.30;99.70;;;;;;5019557;28;20029;-80
2022/01/09 08:55:24;;;;;;;34.90;14.77;;;-0.30;99.80;;;;;;5019155;28;20223;-77
2022/01/09 08:57:50;;;;;;;36.10;14.90;;;-0.20;99.90;;;;;;5020268;28;20033;-80
2022/01/09 09:00:18;;;;;;;36.25;14.23;;;-0.20;99.70;;;;;;5019643;28;20084;-79
2022/01/09 09:02:44;;;;;;;35.45;14.65;;;-0.10;99.30;;;;;;5037250;28;20029;-79
2022/01/09 09:05:10;;;;;;;33.50;14.65;;;-0.10;98.90;;;;;;5019685;28;20033;-79
2022/01/09 09:07:35;;;;;;;30.60;13.25;;;-0.10;99.00;;;;;;5019470;28;20116;-78
2022/01/09 09:10:04;;;;;;;32.05;13.75;;;-0.10;98.80;;;;;;5019366;28;20029;-78
2022/01/09 09:12:31;;;;;;;28.30;12.43;;;-0.10;98.50;;;;;;5037581;28;20101;-79
2022/01/09 09:14:58;;;;;;;28.08;12.88;;;-0.10;98.50;;;;;;5019067;28;20033;-79
2022/01/09 09:17:24;;;;;;;35.05;14.40;;;-0.10;98.30;;;;;;5037262;28;20053;-80
2022/01/09 09:19:50;;;;;;;33.60;15.88;;;-0.10;98.20;;;;;;5036853;28;20030;-79
2022/01/09 09:22:16;;;;;;;32.35;14.68;;;-0.10;98.70;;;;;;5036817;28;20048;-78
2022/01/09 09:24:41;;;;;;;34.70;15.38;;;-0.10;98.60;;;;;;5019565;28;20025;-77
2022/01/09 09:27:07;;;;;;;32.72;14.50;;;-0.10;98.60;;;;;;5031399;28;20040;-80
2022/01/09 09:29:33;;;;;;;32.55;15.13;;;-0.10;98.60;;;;;;5029375;28;20039;-79
2022/01/09 09:32:00;;;;;;;36.67;16.23;;;-0.10;99.00;;;;;;5019275;28;20511;-83
2022/01/09 09:34:25;;;;;;;32.78;15.30;;;-0.10;99.10;;;;;;5036790;28;20041;-81
2022/01/09 09:36:52;;;;;;;35.90;17.27;;;-0.10;98.90;;;;;;5018911;28;20468;-80
2022/01/09 09:39:18;;;;;;;31.30;14.73;;;-0.10;99.30;;;;;;5036536;28;20037;-80
2022/01/09 09:41:44;;;;;;;30.90;13.30;;;0.00;99.30;;;;;;5018802;28;20542;-79
2022/01/09 09:44:10;;;;;;;31.35;12.93;;;0.00;99.30;;;;;;5018356;28;20026;-80
2022/01/09 09:46:37;;;;;;;32.42;14.68;;;0.00;99.30;;;;;;5036323;28;20121;-80
2022/01/09 09:49:03;;;;;;;28.50;12.23;;;0.00;99.10;;;;;;5018540;28;20357;-80
2022/01/09 09:51:30;;;;;;;23.08;10.55;;;0.00;98.90;;;;;;5018556;28;20022;-80
2022/01/09 09:53:58;;;;;;;24.20;10.80;;;0.00;99.00;;;;;;5036448;28;20463;-81
2022/01/09 09:56:24;;;;;;;30.63;13.20;;;0.00;99.40;;;;;;5035694;28;20056;-79
2022/01/09 09:58:51;;;;;;;27.40;11.88;;;0.10;99.50;;;;;;5036414;28;20112;-79
2022/01/09 10:01:36;;;;;;;30.33;12.40;;;0.10;99.60;;;;;;5018118;28;20431;-79
2022/01/09 10:04:08;;;;;;;26.85;11.68;;;0.10;99.90;;;;;;5018058;28;20030;-80
2022/01/09 10:06:47;;;;;;;23.73;11.20;;;0.10;99.80;;;;;;5018605;28;20029;-80
2022/01/09 10:09:15;;;;;;;28.02;11.00;;;0.10;99.70;;;;;;5018466;28;20037;-82
2022/01/09 10:11:43;;;;;;;24.58;11.02;;;0.10;99.60;;;;;;5018575;28;20499;-79
2022/01/09 10:14:27;;;;;;;27.92;12.27;;;0.10;99.70;;;;;;5018421;28;20034;-80
2022/01/09 10:17:24;;;;;;;28.40;12.07;;;0.10;99.90;;;;;;5036439;28;20021;-79
2022/01/09 10:20:03;;;;;;;31.02;13.30;;;0.10;99.90;;;;;;5036382;28;20032;-79
2022/01/09 10:22:46;;;;;;;31.38;12.85;;;0.00;99.90;;;;;;5020475;28;20522;-80
2022/01/09 10:25:37;;;;;;;34.53;13.45;;;0.00;99.90;;;;;;5018379;28;20068;-81
2022/01/09 10:28:14;;;;;;;26.20;11.25;;;0.00;99.90;;;;;;5017838;28;20068;-79
2022/01/09 10:30:45;;;;;;;28.90;12.30;;;0.00;99.90;;;;;;5017618;28;20471;-80
2022/01/09 10:33:18;;;;;;;26.83;11.50;;;0.00;99.90;;;;;;5017132;28;20045;-80
2022/01/09 10:35:48;;;;;;;27.27;12.07;;;0.10;99.90;;;;;;5015023;28;20056;-80
2022/01/09 10:38:17;;;;;;;28.88;12.23;;;0.10;99.90;;;;;;5035167;28;20059;-79
2022/01/09 10:40:47;;;;;;;28.08;11.63;;;0.10;99.90;;;;;;5014427;28;20122;-80
2022/01/09 10:43:19;;;;;;;29.27;12.00;;;0.20;99.90;;;;;;5035148;28;20013;-79
2022/01/09 10:45:59;;;;;;;31.48;12.52;;;0.20;99.90;;;;;;5015403;28;20116;-79
2022/01/09 10:48:42;;;;;;;37.22;13.70;;;0.20;99.90;;;;;;5035308;28;20570;-80
2022/01/09 10:51:11;;;;;;;35.05;13.50;;;0.20;99.90;;;;;;5017819;28;20028;-80
2022/01/09 10:53:38;;;;;;;41.95;15.18;;;0.20;99.90;;;;;;5017525;28;20148;-80
2022/01/09 10:56:25;;;;;;;34.90;13.05;;;0.20;99.90;;;;;;5018874;28;20064;-82
2022/01/09 10:58:53;;;;;;;34.75;13.20;;;0.20;99.90;;;;;;5022725;28;20112;-82
2022/01/09 11:01:27;;;;;;;32.22;13.65;;;0.20;99.90;;;;;;5023123;28;20033;-81
2022/01/09 11:03:58;;;;;;;38.80;15.60;;;0.20;99.90;;;;;;5042709;28;20025;-82
2022/01/09 11:06:31;;;;;;;32.03;13.80;;;0.20;99.90;;;;;;5025297;28;20021;-80
2022/01/09 11:08:58;;;;;;;31.40;13.25;;;0.20;99.90;;;;;;5048423;28;20055;-81
2022/01/09 11:11:47;;;;;;;25.67;12.05;;;0.20;99.90;;;;;;5055312;28;20036;-88
2022/01/09 11:14:14;;;;;;;32.50;12.73;;;0.30;99.90;;;;;;5050451;28;20065;-91
2022/01/09 11:16:51;;;;;;;29.08;11.50;;;0.30;99.90;;;;;;5043028;28;20025;-90
2022/01/09 11:19:18;;;;;;;30.08;11.93;;;0.30;99.90;;;;;;5049730;28;20026;-92
2022/01/09 11:21:46;;;;;;;28.83;11.88;;;0.30;99.90;;;;;;5032858;28;20025;-86
2022/01/09 11:24:31;;;;;;;25.52;11.25;;;0.40;99.90;;;;;;5038190;28;20041;-81
2022/01/09 11:27:01;;;;;;;26.35;10.55;;;0.50;99.90;;;;;;5026547;28;20302;-81
2022/01/09 11:30:07;;;;;;;29.67;12.25;;;0.50;99.90;;;;;;5043886;28;20040;-82
2022/01/09 11:33:18;;;;;;;28.35;12.30;;;0.60;99.90;;;;;;5037351;28;20091;-87
2022/01/09 11:36:16;;;;;;;30.08;11.80;;;0.80;99.90;;;;;;5009904;28;20089;-85
2022/01/09 11:38:52;;;;;;;26.52;11.40;;;0.80;99.90;;;;;;5002593;28;20068;-79
2022/01/09 11:41:24;;;;;;;23.92;11.00;;;0.90;99.90;;;;;;5016875;28;20157;-87
2022/01/09 11:43:57;;;;;;;28.17;11.98;;;1.00;99.90;;;;;;5004454;28;20428;-78
2022/01/09 11:46:25;;;;;;;23.65;11.27;;;1.00;99.90;;;;;;5036989;28;20022;-85
2022/01/09 11:48:51;;;;;;;28.77;12.25;;;1.00;99.90;;;;;;5036763;28;20117;-88
2022/01/09 11:51:21;;;;;;;27.48;11.02;;;1.00;99.90;;;;;;5018495;28;20057;-82
2022/01/09 11:54:09;;;;;;;24.77;10.73;;;1.10;99.90;;;;;;5020866;28;20083;-94
2022/01/09 11:57:01;;;;;;;32.83;12.20;;;1.10;99.90;;;;;;5037822;28;20258;-95
2022/01/09 11:59:51;;;;;;;27.20;11.70;;;1.00;99.90;;;;;;5038089;28;20053;-88
2022/01/09 12:02:16;;;;;;;34.93;16.53;;;1.00;99.90;;;;;;5034980;28;20017;-82
2022/01/09 12:04:45;;;;;;;39.38;18.70;;;1.00;99.90;;;;;;5037163;28;20022;-90
2022/01/09 12:07:18;;;;;;;35.10;15.70;;;0.90;99.90;;;;;;5018587;28;20049;-86
2022/01/09 12:09:52;;;;;;;29.38;12.95;;;0.90;99.90;;;;;;5016177;28;20140;-89
2022/01/09 12:12:20;;;;;;;29.45;12.85;;;0.90;99.90;;;;;;5023361;28;20025;-91
2022/01/09 12:15:03;;;;;;;28.10;12.27;;;0.90;99.90;;;;;;5028042;28;20060;-91
2022/01/09 12:17:43;;;;;;;29.55;12.82;;;0.90;99.90;;;;;;5026462;28;20048;-93
2022/01/09 12:20:12;;;;;;;34.35;13.10;;;0.90;99.90;;;;;;5034890;28;20040;-87
2022/01/09 12:22:51;;;;;;;27.90;11.93;;;0.90;99.90;;;;;;5033687;28;20471;-90
2022/01/09 12:25:26;;;;;;;38.03;13.10;;;0.90;99.90;;;;;;5017966;28;20087;-87
2022/01/09 12:28:10;;;;;;;30.73;13.13;;;0.90;99.90;;;;;;5055232;28;20120;-87
2022/01/09 12:33:20;;;;;;;28.95;12.35;;;1.00;99.90;;;;;;5057308;28;20440;-86
2022/01/09 12:36:28;;;;;;;26.42;12.02;;;1.00;99.90;;;;;;5042679;28;20430;-90
2022/01/09 12:38:57;;;;;;;29.55;11.45;;;1.00;99.90;;;;;;5016792;28;20059;-86
2022/01/09 12:41:33;;;;;;;26.67;10.63;;;1.00;99.90;;;;;;5049336;28;20057;-88
2022/01/09 12:44:00;;;;;;;27.58;11.38;;;0.90;99.90;;;;;;5018513;28;20030;-86
2022/01/09 12:46:29;;;;;;;28.92;11.60;;;0.90;99.90;;;;;;5017879;28;20449;-89
2022/01/09 12:49:02;;;;;;;25.85;12.07;;;0.90;99.90;;;;;;5020563;28;20033;-94
2022/01/09 12:54:36;;;;;;;30.35;11.32;;;0.90;99.90;;;;;;5028470;28;20053;-87